sensor_id;sensor_type;location;lat;lon;timestamp;temperature;humidity
64685;DHT22;51109;47.414;18.954;2024-02-28T00:00:38;11.70;99.90
64685;DHT22;51109;47.414;18.954;2024-02-28T00:03:04;11.70;99.90
64685;DHT22;51109;47.414;18.954;2024-02-28T00:05:31;11.80;99.90
64685;DHT22;51109;47.414;18.954;2024-02-28T00:07:57;11.80;99.90
64685;DHT22;51109;47.414;18.954;2024-02-28T00:10:22;11.70;99.90
64685;DHT22;51109;47.414;18.954;2024-02-28T00:12:49;11.70;99.90
64685;DHT22;51109;47.414;18.954;2024-02-28T00:15:14;11.70;99.90
64685;DHT22;51109;47.414;18.954;2024-02-28T00:17:41;11.70;99.90
64685;DHT22;51109;47.414;18.954;2024-02-28T00:20:08;11.60;99.90
64685;DHT22;51109;47.414;18.954;2024-02-28T00:22:35;11.70;99.90
64685;DHT22;51109;47.414;18.954;2024-02-28T00:25:02;11.60;99.90
64685;DHT22;51109;47.414;18.954;2024-02-28T00:27:28;11.60;99.90
64685;DHT22;51109;47.414;18.954;2024-02-28T00:29:54;11.60;99.90
64685;DHT22;51109;47.414;18.954;2024-02-28T00:32:21;11.70;99.90
64685;DHT22;51109;47.414;18.954;2024-02-28T00:34:46;11.60;99.90
64685;DHT22;51109;47.414;18.954;2024-02-28T00:37:12;11.60;99.90
64685;DHT22;51109;47.414;18.954;2024-02-28T00:39:38;11.60;99.90
64685;DHT22;51109;47.414;18.954;2024-02-28T00:42:04;11.60;99.90
64685;DHT22;51109;47.414;18.954;2024-02-28T00:44:30;11.50;99.90
64685;DHT22;51109;47.414;18.954;2024-02-28T00:46:55;11.50;99.90
64685;DHT22;51109;47.414;18.954;2024-02-28T00:49:22;11.50;99.90
64685;DHT22;51109;47.414;18.954;2024-02-28T00:51:47;11.50;99.90
64685;DHT22;51109;47.414;18.954;2024-02-28T00:54:13;11.50;99.90
64685;DHT22;51109;47.414;18.954;2024-02-28T00:56:39;11.40;99.90
64685;DHT22;51109;47.414;18.954;2024-02-28T00:59:05;11.40;99.90
64685;DHT22;51109;47.414;18.954;2024-02-28T01:01:32;11.50;99.90
64685;DHT22;51109;47.414;18.954;2024-02-28T01:03:58;11.50;99.90
64685;DHT22;51109;47.414;18.954;2024-02-28T01:06:24;11.50;99.90
64685;DHT22;51109;47.414;18.954;2024-02-28T01:08:49;11.40;99.90
64685;DHT22;51109;47.414;18.954;2024-02-28T01:11:15;11.40;99.90
64685;DHT22;51109;47.414;18.954;2024-02-28T01:13:41;11.40;99.90
64685;DHT22;51109;47.414;18.954;2024-02-28T01:16:07;11.40;99.90
64685;DHT22;51109;47.414;18.954;2024-02-28T01:18:33;11.40;99.90
64685;DHT22;51109;47.414;18.954;2024-02-28T01:20:59;11.40;99.90
64685;DHT22;51109;47.414;18.954;2024-02-28T01:23:24;11.30;99.90
64685;DHT22;51109;47.414;18.954;2024-02-28T01:25:50;11.30;99.90
64685;DHT22;51109;47.414;18.954;2024-02-28T01:28:16;11.20;99.90
64685;DHT22;51109;47.414;18.954;2024-02-28T01:30:41;11.20;99.90
64685;DHT22;51109;47.414;18.954;2024-02-28T01:33:07;11.10;99.90
64685;DHT22;51109;47.414;18.954;2024-02-28T01:35:33;11.10;99.90
64685;DHT22;51109;47.414;18.954;2024-02-28T01:37:59;11.10;99.90
64685;DHT22;51109;47.414;18.954;2024-02-28T01:40:24;11.10;99.90
64685;DHT22;51109;47.414;18.954;2024-02-28T01:42:50;11.00;99.90
64685;DHT22;51109;47.414;18.954;2024-02-28T01:45:16;10.90;99.90
64685;DHT22;51109;47.414;18.954;2024-02-28T01:47:42;10.90;99.90
64685;DHT22;51109;47.414;18.954;2024-02-28T01:50:10;10.90;99.90
64685;DHT22;51109;47.414;18.954;2024-02-28T01:52:38;10.90;99.90
64685;DHT22;51109;47.414;18.954;2024-02-28T01:55:05;10.90;99.90
64685;DHT22;51109;47.414;18.954;2024-02-28T01:57:33;10.90;99.90
64685;DHT22;51109;47.414;18.954;2024-02-28T02:00:00;10.90;99.90
64685;DHT22;51109;47.414;18.954;2024-02-28T02:02:26;10.90;99.90
64685;DHT22;51109;47.414;18.954;2024-02-28T02:04:52;10.90;99.90
64685;DHT22;51109;47.414;18.954;2024-02-28T02:07:20;12.70;99.90
64685;DHT22;51109;47.414;18.954;2024-02-28T02:09:46;10.80;99.90
64685;DHT22;51109;47.414;18.954;2024-02-28T02:12:12;10.80;99.90
64685;DHT22;51109;47.414;18.954;2024-02-28T02:14:38;10.70;99.90
64685;DHT22;51109;47.414;18.954;2024-02-28T02:17:04;10.70;99.90
64685;DHT22;51109;47.414;18.954;2024-02-28T02:19:30;10.60;99.90
64685;DHT22;51109;47.414;18.954;2024-02-28T02:21:58;10.60;99.90
64685;DHT22;51109;47.414;18.954;2024-02-28T02:24:24;12.40;99.90
64685;DHT22;51109;47.414;18.954;2024-02-28T02:26:58;10.60;99.90
64685;DHT22;51109;47.414;18.954;2024-02-28T02:29:23;10.50;99.90
64685;DHT22;51109;47.414;18.954;2024-02-28T02:31:49;10.50;99.90
64685;DHT22;51109;47.414;18.954;2024-02-28T02:34:15;10.50;99.90
64685;DHT22;51109;47.414;18.954;2024-02-28T02:36:41;10.50;99.90
64685;DHT22;51109;47.414;18.954;2024-02-28T02:39:06;10.50;99.90
64685;DHT22;51109;47.414;18.954;2024-02-28T02:41:35;10.40;99.90
64685;DHT22;51109;47.414;18.954;2024-02-28T02:44:01;10.50;99.90
64685;DHT22;51109;47.414;18.954;2024-02-28T02:46:27;10.50;99.90
64685;DHT22;51109;47.414;18.954;2024-02-28T02:48:52;10.40;99.90
64685;DHT22;51109;47.414;18.954;2024-02-28T02:51:19;10.40;99.90
64685;DHT22;51109;47.414;18.954;2024-02-28T02:53:45;10.40;99.90
64685;DHT22;51109;47.414;18.954;2024-02-28T02:56:11;10.40;99.90
64685;DHT22;51109;47.414;18.954;2024-02-28T02:58:36;10.40;99.90
64685;DHT22;51109;47.414;18.954;2024-02-28T03:01:02;10.30;99.90
64685;DHT22;51109;47.414;18.954;2024-02-28T03:03:28;10.30;99.90
64685;DHT22;51109;47.414;18.954;2024-02-28T03:05:54;10.30;99.90
64685;DHT22;51109;47.414;18.954;2024-02-28T03:08:20;10.30;99.90
64685;DHT22;51109;47.414;18.954;2024-02-28T03:10:46;10.30;99.90
64685;DHT22;51109;47.414;18.954;2024-02-28T03:13:12;10.30;99.90
64685;DHT22;51109;47.414;18.954;2024-02-28T03:15:37;10.40;99.90
64685;DHT22;51109;47.414;18.954;2024-02-28T03:18:04;10.30;99.90
64685;DHT22;51109;47.414;18.954;2024-02-28T03:20:30;10.30;99.90
64685;DHT22;51109;47.414;18.954;2024-02-28T03:22:55;10.30;99.90
64685;DHT22;51109;47.414;18.954;2024-02-28T03:25:21;10.30;99.90
64685;DHT22;51109;47.414;18.954;2024-02-28T03:27:47;10.30;99.90
64685;DHT22;51109;47.414;18.954;2024-02-28T03:30:13;10.30;99.90
64685;DHT22;51109;47.414;18.954;2024-02-28T03:32:38;10.20;99.90
64685;DHT22;51109;47.414;18.954;2024-02-28T03:35:04;10.20;99.90
64685;DHT22;51109;47.414;18.954;2024-02-28T03:37:31;10.30;99.90
64685;DHT22;51109;47.414;18.954;2024-02-28T03:39:57;10.20;99.90
64685;DHT22;51109;47.414;18.954;2024-02-28T03:42:22;10.20;99.90
64685;DHT22;51109;47.414;18.954;2024-02-28T03:44:48;10.30;99.90
64685;DHT22;51109;47.414;18.954;2024-02-28T03:47:14;10.30;99.90
64685;DHT22;51109;47.414;18.954;2024-02-28T03:49:40;10.30;99.90
64685;DHT22;51109;47.414;18.954;2024-02-28T03:52:05;10.20;99.90
64685;DHT22;51109;47.414;18.954;2024-02-28T03:54:31;10.10;99.90
64685;DHT22;51109;47.414;18.954;2024-02-28T03:56:57;10.10;99.90
64685;DHT22;51109;47.414;18.954;2024-02-28T03:59:24;10.10;99.90
64685;DHT22;51109;47.414;18.954;2024-02-28T04:01:50;10.10;99.90
64685;DHT22;51109;47.414;18.954;2024-02-28T04:04:16;10.20;99.90
64685;DHT22;51109;47.414;18.954;2024-02-28T04:06:42;10.10;99.90
64685;DHT22;51109;47.414;18.954;2024-02-28T04:09:07;10.10;99.90
64685;DHT22;51109;47.414;18.954;2024-02-28T04:11:34;10.10;99.90
64685;DHT22;51109;47.414;18.954;2024-02-28T04:13:59;10.10;99.90
64685;DHT22;51109;47.414;18.954;2024-02-28T04:16:25;10.00;99.90
64685;DHT22;51109;47.414;18.954;2024-02-28T04:18:51;10.00;99.90
64685;DHT22;51109;47.414;18.954;2024-02-28T04:21:16;10.00;99.90
64685;DHT22;51109;47.414;18.954;2024-02-28T04:23:42;10.10;99.90
64685;DHT22;51109;47.414;18.954;2024-02-28T04:26:09;10.10;99.90
64685;DHT22;51109;47.414;18.954;2024-02-28T04:28:35;10.00;99.90
64685;DHT22;51109;47.414;18.954;2024-02-28T04:31:01;10.10;99.90
64685;DHT22;51109;47.414;18.954;2024-02-28T04:33:27;10.10;99.90
64685;DHT22;51109;47.414;18.954;2024-02-28T04:35:52;10.10;99.90
64685;DHT22;51109;47.414;18.954;2024-02-28T04:38:18;10.10;99.90
64685;DHT22;51109;47.414;18.954;2024-02-28T04:40:44;10.10;99.90
64685;DHT22;51109;47.414;18.954;2024-02-28T04:43:10;10.10;99.90
64685;DHT22;51109;47.414;18.954;2024-02-28T04:45:36;10.10;99.90
64685;DHT22;51109;47.414;18.954;2024-02-28T04:48:06;10.10;99.90
64685;DHT22;51109;47.414;18.954;2024-02-28T04:50:32;10.00;99.90
64685;DHT22;51109;47.414;18.954;2024-02-28T04:52:58;10.00;99.90
64685;DHT22;51109;47.414;18.954;2024-02-28T04:55:23;10.00;99.90
64685;DHT22;51109;47.414;18.954;2024-02-28T04:57:49;10.00;99.90
64685;DHT22;51109;47.414;18.954;2024-02-28T05:00:15;10.00;99.90
64685;DHT22;51109;47.414;18.954;2024-02-28T05:02:41;9.90;99.90
64685;DHT22;51109;47.414;18.954;2024-02-28T05:05:07;9.90;99.90
64685;DHT22;51109;47.414;18.954;2024-02-28T05:07:33;9.90;99.90
64685;DHT22;51109;47.414;18.954;2024-02-28T05:09:59;10.00;99.90
64685;DHT22;51109;47.414;18.954;2024-02-28T05:12:25;9.90;99.90
64685;DHT22;51109;47.414;18.954;2024-02-28T05:14:50;9.90;99.90
64685;DHT22;51109;47.414;18.954;2024-02-28T05:17:16;9.90;99.90
64685;DHT22;51109;47.414;18.954;2024-02-28T05:19:43;10.00;99.90
64685;DHT22;51109;47.414;18.954;2024-02-28T05:22:09;9.90;99.90
64685;DHT22;51109;47.414;18.954;2024-02-28T05:24:37;9.90;99.90
64685;DHT22;51109;47.414;18.954;2024-02-28T05:27:02;9.90;99.90
64685;DHT22;51109;47.414;18.954;2024-02-28T05:29:28;9.90;99.90
64685;DHT22;51109;47.414;18.954;2024-02-28T05:31:54;9.90;99.90
64685;DHT22;51109;47.414;18.954;2024-02-28T05:34:20;9.80;99.90
64685;DHT22;51109;47.414;18.954;2024-02-28T05:36:46;9.80;99.90
64685;DHT22;51109;47.414;18.954;2024-02-28T05:39:12;9.80;99.90
64685;DHT22;51109;47.414;18.954;2024-02-28T05:41:37;9.80;99.90
64685;DHT22;51109;47.414;18.954;2024-02-28T05:44:03;9.80;99.90
64685;DHT22;51109;47.414;18.954;2024-02-28T05:46:29;9.80;99.90
64685;DHT22;51109;47.414;18.954;2024-02-28T05:48:55;9.80;99.90
64685;DHT22;51109;47.414;18.954;2024-02-28T05:51:21;9.80;99.90
64685;DHT22;51109;47.414;18.954;2024-02-28T05:53:48;9.70;99.90
64685;DHT22;51109;47.414;18.954;2024-02-28T05:56:13;9.70;99.90
64685;DHT22;51109;47.414;18.954;2024-02-28T05:58:44;9.70;99.90
64685;DHT22;51109;47.414;18.954;2024-02-28T06:01:10;9.70;99.90
64685;DHT22;51109;47.414;18.954;2024-02-28T06:03:37;9.60;99.90
64685;DHT22;51109;47.414;18.954;2024-02-28T06:06:03;9.70;99.90
64685;DHT22;51109;47.414;18.954;2024-02-28T06:08:34;9.70;99.90
64685;DHT22;51109;47.414;18.954;2024-02-28T06:11:01;9.70;99.90
64685;DHT22;51109;47.414;18.954;2024-02-28T06:13:27;9.70;99.90
64685;DHT22;51109;47.414;18.954;2024-02-28T06:15:55;9.70;99.90
64685;DHT22;51109;47.414;18.954;2024-02-28T06:18:21;9.70;99.90
64685;DHT22;51109;47.414;18.954;2024-02-28T06:20:48;9.70;99.90
64685;DHT22;51109;47.414;18.954;2024-02-28T06:23:14;9.70;99.90
64685;DHT22;51109;47.414;18.954;2024-02-28T06:25:40;9.70;99.90
64685;DHT22;51109;47.414;18.954;2024-02-28T06:28:06;9.70;99.90
64685;DHT22;51109;47.414;18.954;2024-02-28T06:30:33;9.70;99.90
64685;DHT22;51109;47.414;18.954;2024-02-28T06:32:59;9.70;99.90
64685;DHT22;51109;47.414;18.954;2024-02-28T06:35:26;9.70;99.90
64685;DHT22;51109;47.414;18.954;2024-02-28T06:37:51;9.60;99.90
64685;DHT22;51109;47.414;18.954;2024-02-28T06:40:17;9.60;99.90
64685;DHT22;51109;47.414;18.954;2024-02-28T06:42:44;9.70;99.90
64685;DHT22;51109;47.414;18.954;2024-02-28T06:45:10;9.70;99.90
64685;DHT22;51109;47.414;18.954;2024-02-28T06:47:35;9.70;99.90
64685;DHT22;51109;47.414;18.954;2024-02-28T06:50:06;9.80;99.90
64685;DHT22;51109;47.414;18.954;2024-02-28T06:52:32;9.80;99.90
64685;DHT22;51109;47.414;18.954;2024-02-28T06:54:59;9.80;99.90
64685;DHT22;51109;47.414;18.954;2024-02-28T06:57:26;9.90;99.90
64685;DHT22;51109;47.414;18.954;2024-02-28T06:59:52;10.00;99.90
64685;DHT22;51109;47.414;18.954;2024-02-28T07:02:17;10.10;99.90
64685;DHT22;51109;47.414;18.954;2024-02-28T07:04:43;10.20;99.90
64685;DHT22;51109;47.414;18.954;2024-02-28T07:07:09;10.30;99.90
64685;DHT22;51109;47.414;18.954;2024-02-28T07:09:37;10.50;99.90
64685;DHT22;51109;47.414;18.954;2024-02-28T07:12:03;10.50;99.90
64685;DHT22;51109;47.414;18.954;2024-02-28T07:14:29;10.60;99.90
64685;DHT22;51109;47.414;18.954;2024-02-28T07:16:55;10.70;99.90
64685;DHT22;51109;47.414;18.954;2024-02-28T07:19:21;10.70;99.90
64685;DHT22;51109;47.414;18.954;2024-02-28T07:21:47;10.80;99.90
64685;DHT22;51109;47.414;18.954;2024-02-28T07:24:12;10.90;99.90
64685;DHT22;51109;47.414;18.954;2024-02-28T07:26:39;11.00;99.90
64685;DHT22;51109;47.414;18.954;2024-02-28T07:29:06;11.10;99.90
64685;DHT22;51109;47.414;18.954;2024-02-28T07:31:32;11.20;99.90
64685;DHT22;51109;47.414;18.954;2024-02-28T07:33:57;11.20;99.90
64685;DHT22;51109;47.414;18.954;2024-02-28T07:36:23;11.30;99.90
64685;DHT22;51109;47.414;18.954;2024-02-28T07:38:49;11.50;99.90
64685;DHT22;51109;47.414;18.954;2024-02-28T07:41:15;11.50;99.90
64685;DHT22;51109;47.414;18.954;2024-02-28T07:43:44;11.60;99.90
64685;DHT22;51109;47.414;18.954;2024-02-28T07:46:10;11.60;99.90
64685;DHT22;51109;47.414;18.954;2024-02-28T07:48:37;11.60;99.90
64685;DHT22;51109;47.414;18.954;2024-02-28T07:51:06;11.70;99.90
64685;DHT22;51109;47.414;18.954;2024-02-28T07:53:32;11.80;99.90
64685;DHT22;51109;47.414;18.954;2024-02-28T07:55:58;11.60;99.90
64685;DHT22;51109;47.414;18.954;2024-02-28T07:58:24;11.50;99.90
64685;DHT22;51109;47.414;18.954;2024-02-28T08:00:50;11.50;99.90
64685;DHT22;51109;47.414;18.954;2024-02-28T08:03:18;11.60;99.90
64685;DHT22;51109;47.414;18.954;2024-02-28T08:05:44;11.60;99.90
64685;DHT22;51109;47.414;18.954;2024-02-28T08:08:10;11.80;99.90
64685;DHT22;51109;47.414;18.954;2024-02-28T08:10:37;12.00;99.90
64685;DHT22;51109;47.414;18.954;2024-02-28T08:13:06;12.10;99.90
64685;DHT22;51109;47.414;18.954;2024-02-28T08:15:33;12.20;99.90
64685;DHT22;51109;47.414;18.954;2024-02-28T08:17:59;12.20;99.90
64685;DHT22;51109;47.414;18.954;2024-02-28T08:20:24;12.20;99.90
64685;DHT22;51109;47.414;18.954;2024-02-28T08:22:50;12.10;99.90
64685;DHT22;51109;47.414;18.954;2024-02-28T08:25:18;12.20;99.90
64685;DHT22;51109;47.414;18.954;2024-02-28T08:27:44;12.10;99.90
64685;DHT22;51109;47.414;18.954;2024-02-28T08:30:10;11.90;99.90
64685;DHT22;51109;47.414;18.954;2024-02-28T08:32:36;12.00;99.90
64685;DHT22;51109;47.414;18.954;2024-02-28T08:35:02;12.10;99.90
64685;DHT22;51109;47.414;18.954;2024-02-28T08:37:28;12.00;99.90
64685;DHT22;51109;47.414;18.954;2024-02-28T08:39:55;12.10;99.90
64685;DHT22;51109;47.414;18.954;2024-02-28T08:42:26;12.30;99.90
64685;DHT22;51109;47.414;18.954;2024-02-28T08:44:53;12.40;99.90
64685;DHT22;51109;47.414;18.954;2024-02-28T08:47:26;12.50;99.90
64685;DHT22;51109;47.414;18.954;2024-02-28T08:49:52;12.60;99.90
64685;DHT22;51109;47.414;18.954;2024-02-28T08:52:19;12.80;99.90
64685;DHT22;51109;47.414;18.954;2024-02-28T08:54:45;12.90;99.90
64685;DHT22;51109;47.414;18.954;2024-02-28T08:57:11;13.10;99.90
64685;DHT22;51109;47.414;18.954;2024-02-28T08:59:37;13.20;99.90
64685;DHT22;51109;47.414;18.954;2024-02-28T09:02:02;13.30;99.90
64685;DHT22;51109;47.414;18.954;2024-02-28T09:04:29;13.50;99.90
64685;DHT22;51109;47.414;18.954;2024-02-28T09:06:55;13.40;99.90
64685;DHT22;51109;47.414;18.954;2024-02-28T09:09:21;13.60;99.90
64685;DHT22;51109;47.414;18.954;2024-02-28T09:11:46;13.60;99.90
64685;DHT22;51109;47.414;18.954;2024-02-28T09:14:12;13.70;99.90
64685;DHT22;51109;47.414;18.954;2024-02-28T09:16:38;13.80;99.90
64685;DHT22;51109;47.414;18.954;2024-02-28T09:19:04;14.00;99.90
64685;DHT22;51109;47.414;18.954;2024-02-28T09:21:30;14.10;99.90
64685;DHT22;51109;47.414;18.954;2024-02-28T09:23:56;14.10;99.90
64685;DHT22;51109;47.414;18.954;2024-02-28T09:26:22;13.90;99.90
64685;DHT22;51109;47.414;18.954;2024-02-28T09:28:48;14.10;99.90
64685;DHT22;51109;47.414;18.954;2024-02-28T09:31:14;14.40;99.90
64685;DHT22;51109;47.414;18.954;2024-02-28T09:33:41;14.50;99.90
64685;DHT22;51109;47.414;18.954;2024-02-28T09:36:07;14.70;99.90
64685;DHT22;51109;47.414;18.954;2024-02-28T09:38:33;14.80;99.90
64685;DHT22;51109;47.414;18.954;2024-02-28T09:41:01;14.70;99.90
64685;DHT22;51109;47.414;18.954;2024-02-28T09:43:40;14.40;99.90
64685;DHT22;51109;47.414;18.954;2024-02-28T09:46:07;14.50;99.90
64685;DHT22;51109;47.414;18.954;2024-02-28T09:48:39;14.80;99.90
64685;DHT22;51109;47.414;18.954;2024-02-28T09:51:06;14.70;99.90
64685;DHT22;51109;47.414;18.954;2024-02-28T09:53:32;14.70;99.90
64685;DHT22;51109;47.414;18.954;2024-02-28T09:55:58;14.80;99.90
64685;DHT22;51109;47.414;18.954;2024-02-28T09:58:25;14.70;99.90
64685;DHT22;51109;47.414;18.954;2024-02-28T10:00:52;14.90;99.90
64685;DHT22;51109;47.414;18.954;2024-02-28T10:03:20;14.80;99.90
64685;DHT22;51109;47.414;18.954;2024-02-28T10:05:48;14.70;99.90
64685;DHT22;51109;47.414;18.954;2024-02-28T10:08:14;14.70;99.90
64685;DHT22;51109;47.414;18.954;2024-02-28T10:10:47;14.80;99.90
64685;DHT22;51109;47.414;18.954;2024-02-28T10:13:16;15.10;99.90
64685;DHT22;51109;47.414;18.954;2024-02-28T10:15:41;14.90;99.90
64685;DHT22;51109;47.414;18.954;2024-02-28T10:18:07;15.20;99.90
64685;DHT22;51109;47.414;18.954;2024-02-28T10:20:34;15.10;99.90
64685;DHT22;51109;47.414;18.954;2024-02-28T10:23:06;15.10;99.90
64685;DHT22;51109;47.414;18.954;2024-02-28T10:25:45;15.20;99.90
64685;DHT22;51109;47.414;18.954;2024-02-28T10:28:12;15.40;99.90
64685;DHT22;51109;47.414;18.954;2024-02-28T10:30:43;15.40;99.90
64685;DHT22;51109;47.414;18.954;2024-02-28T10:33:15;15.50;99.90
64685;DHT22;51109;47.414;18.954;2024-02-28T10:35:42;15.60;99.90
64685;DHT22;51109;47.414;18.954;2024-02-28T10:38:13;15.70;99.90
64685;DHT22;51109;47.414;18.954;2024-02-28T10:40:40;15.80;99.90
64685;DHT22;51109;47.414;18.954;2024-02-28T10:43:08;15.70;99.90
64685;DHT22;51109;47.414;18.954;2024-02-28T10:45:36;15.60;99.90
64685;DHT22;51109;47.414;18.954;2024-02-28T10:48:05;15.70;99.90
64685;DHT22;51109;47.414;18.954;2024-02-28T10:50:31;15.90;99.90
64685;DHT22;51109;47.414;18.954;2024-02-28T10:53:03;15.90;99.90
64685;DHT22;51109;47.414;18.954;2024-02-28T10:55:39;15.90;99.90
64685;DHT22;51109;47.414;18.954;2024-02-28T10:58:10;15.70;99.90
64685;DHT22;51109;47.414;18.954;2024-02-28T11:00:40;16.00;99.90
64685;DHT22;51109;47.414;18.954;2024-02-28T11:03:08;16.10;99.90
64685;DHT22;51109;47.414;18.954;2024-02-28T11:05:39;16.10;99.90
64685;DHT22;51109;47.414;18.954;2024-02-28T11:08:22;15.90;99.90
64685;DHT22;51109;47.414;18.954;2024-02-28T11:10:58;15.80;99.90
64685;DHT22;51109;47.414;18.954;2024-02-28T11:13:28;16.20;99.90
64685;DHT22;51109;47.414;18.954;2024-02-28T11:15:54;16.30;99.90
64685;DHT22;51109;47.414;18.954;2024-02-28T11:18:23;16.40;99.90
64685;DHT22;51109;47.414;18.954;2024-02-28T11:20:49;16.60;99.90
64685;DHT22;51109;47.414;18.954;2024-02-28T11:23:19;16.80;99.90
64685;DHT22;51109;47.414;18.954;2024-02-28T11:25:45;16.90;99.90
64685;DHT22;51109;47.414;18.954;2024-02-28T11:28:11;16.70;99.90
64685;DHT22;51109;47.414;18.954;2024-02-28T11:30:37;16.50;99.90
64685;DHT22;51109;47.414;18.954;2024-02-28T11:33:03;16.40;99.90
64685;DHT22;51109;47.414;18.954;2024-02-28T11:35:28;16.60;99.90
64685;DHT22;51109;47.414;18.954;2024-02-28T11:37:55;16.60;99.90
64685;DHT22;51109;47.414;18.954;2024-02-28T11:40:24;16.80;99.90
64685;DHT22;51109;47.414;18.954;2024-02-28T11:42:54;16.90;99.90
64685;DHT22;51109;47.414;18.954;2024-02-28T11:45:20;16.90;99.90
64685;DHT22;51109;47.414;18.954;2024-02-28T11:47:46;16.90;99.90
64685;DHT22;51109;47.414;18.954;2024-02-28T11:50:13;17.00;99.90
64685;DHT22;51109;47.414;18.954;2024-02-28T11:52:40;16.90;99.90
64685;DHT22;51109;47.414;18.954;2024-02-28T11:55:07;16.80;99.90
64685;DHT22;51109;47.414;18.954;2024-02-28T11:57:32;16.60;99.90
64685;DHT22;51109;47.414;18.954;2024-02-28T12:00:07;16.70;99.90
64685;DHT22;51109;47.414;18.954;2024-02-28T12:02:33;16.80;99.90
64685;DHT22;51109;47.414;18.954;2024-02-28T12:05:03;16.70;99.90
64685;DHT22;51109;47.414;18.954;2024-02-28T12:07:32;16.70;99.90
64685;DHT22;51109;47.414;18.954;2024-02-28T12:09:59;16.60;99.90
64685;DHT22;51109;47.414;18.954;2024-02-28T12:12:27;16.80;99.90
64685;DHT22;51109;47.414;18.954;2024-02-28T12:14:58;16.80;99.90
64685;DHT22;51109;47.414;18.954;2024-02-28T12:17:25;16.80;99.90
64685;DHT22;51109;47.414;18.954;2024-02-28T12:19:52;16.90;99.90
64685;DHT22;51109;47.414;18.954;2024-02-28T12:22:18;16.90;99.90
64685;DHT22;51109;47.414;18.954;2024-02-28T12:24:44;16.90;99.90
64685;DHT22;51109;47.414;18.954;2024-02-28T12:27:10;16.90;99.90
64685;DHT22;51109;47.414;18.954;2024-02-28T12:29:36;16.90;99.90
64685;DHT22;51109;47.414;18.954;2024-02-28T12:32:02;16.80;99.90
64685;DHT22;51109;47.414;18.954;2024-02-28T12:34:28;16.80;99.90
64685;DHT22;51109;47.414;18.954;2024-02-28T12:36:54;16.70;99.90
64685;DHT22;51109;47.414;18.954;2024-02-28T12:39:20;16.80;99.90
64685;DHT22;51109;47.414;18.954;2024-02-28T12:41:46;16.90;99.90
64685;DHT22;51109;47.414;18.954;2024-02-28T12:44:11;16.90;99.90
64685;DHT22;51109;47.414;18.954;2024-02-28T12:46:37;16.90;99.90
64685;DHT22;51109;47.414;18.954;2024-02-28T12:49:03;17.00;99.90
64685;DHT22;51109;47.414;18.954;2024-02-28T12:51:45;17.30;99.90
64685;DHT22;51109;47.414;18.954;2024-02-28T12:54:12;17.20;99.90
64685;DHT22;51109;47.414;18.954;2024-02-28T12:56:41;17.10;99.90
64685;DHT22;51109;47.414;18.954;2024-02-28T12:59:10;17.10;99.90
64685;DHT22;51109;47.414;18.954;2024-02-28T13:01:35;17.10;99.90
64685;DHT22;51109;47.414;18.954;2024-02-28T13:04:02;17.10;99.90
64685;DHT22;51109;47.414;18.954;2024-02-28T13:06:28;17.20;99.90
64685;DHT22;51109;47.414;18.954;2024-02-28T13:08:54;17.20;99.90
64685;DHT22;51109;47.414;18.954;2024-02-28T13:11:22;17.50;99.90
64685;DHT22;51109;47.414;18.954;2024-02-28T13:13:48;17.60;99.90
64685;DHT22;51109;47.414;18.954;2024-02-28T13:16:16;17.50;99.90
64685;DHT22;51109;47.414;18.954;2024-02-28T13:18:42;17.30;99.90
64685;DHT22;51109;47.414;18.954;2024-02-28T13:21:08;17.40;99.90
64685;DHT22;51109;47.414;18.954;2024-02-28T13:23:34;17.40;99.90
64685;DHT22;51109;47.414;18.954;2024-02-28T13:26:01;17.40;99.90
64685;DHT22;51109;47.414;18.954;2024-02-28T13:28:27;17.50;99.90
64685;DHT22;51109;47.414;18.954;2024-02-28T13:31:00;17.30;99.90
64685;DHT22;51109;47.414;18.954;2024-02-28T13:33:26;17.10;99.90
64685;DHT22;51109;47.414;18.954;2024-02-28T13:35:52;17.20;99.90
64685;DHT22;51109;47.414;18.954;2024-02-28T13:38:19;17.20;99.90
64685;DHT22;51109;47.414;18.954;2024-02-28T13:40:46;17.20;99.90
64685;DHT22;51109;47.414;18.954;2024-02-28T13:43:12;17.30;99.90
64685;DHT22;51109;47.414;18.954;2024-02-28T13:45:38;17.50;99.90
64685;DHT22;51109;47.414;18.954;2024-02-28T13:48:21;17.40;99.90
64685;DHT22;51109;47.414;18.954;2024-02-28T13:50:48;17.40;99.90
64685;DHT22;51109;47.414;18.954;2024-02-28T13:53:15;17.20;99.90
64685;DHT22;51109;47.414;18.954;2024-02-28T13:55:41;17.30;99.90
64685;DHT22;51109;47.414;18.954;2024-02-28T13:58:08;17.40;99.90
64685;DHT22;51109;47.414;18.954;2024-02-28T14:00:37;17.40;99.90
64685;DHT22;51109;47.414;18.954;2024-02-28T14:03:03;17.50;99.90
64685;DHT22;51109;47.414;18.954;2024-02-28T14:05:29;17.50;99.90
64685;DHT22;51109;47.414;18.954;2024-02-28T14:07:55;17.70;99.90
64685;DHT22;51109;47.414;18.954;2024-02-28T14:10:23;17.60;99.90
64685;DHT22;51109;47.414;18.954;2024-02-28T14:12:49;17.60;99.90
64685;DHT22;51109;47.414;18.954;2024-02-28T14:15:15;17.70;99.90
64685;DHT22;51109;47.414;18.954;2024-02-28T14:17:41;17.60;99.90
64685;DHT22;51109;47.414;18.954;2024-02-28T14:20:08;17.60;99.90
64685;DHT22;51109;47.414;18.954;2024-02-28T14:22:34;17.60;99.90
64685;DHT22;51109;47.414;18.954;2024-02-28T14:25:00;17.50;99.90
64685;DHT22;51109;47.414;18.954;2024-02-28T14:27:26;17.50;99.90
64685;DHT22;51109;47.414;18.954;2024-02-28T14:29:55;17.40;99.90
64685;DHT22;51109;47.414;18.954;2024-02-28T14:32:21;17.30;99.90
64685;DHT22;51109;47.414;18.954;2024-02-28T14:34:47;17.40;99.90
64685;DHT22;51109;47.414;18.954;2024-02-28T14:37:14;17.50;99.90
64685;DHT22;51109;47.414;18.954;2024-02-28T14:39:41;17.40;99.90
64685;DHT22;51109;47.414;18.954;2024-02-28T14:42:07;17.20;99.90
64685;DHT22;51109;47.414;18.954;2024-02-28T14:44:37;17.20;99.90
64685;DHT22;51109;47.414;18.954;2024-02-28T14:47:05;17.00;99.90
64685;DHT22;51109;47.414;18.954;2024-02-28T14:49:31;17.00;99.90
64685;DHT22;51109;47.414;18.954;2024-02-28T14:51:57;17.00;99.90
64685;DHT22;51109;47.414;18.954;2024-02-28T14:54:23;17.00;99.90
64685;DHT22;51109;47.414;18.954;2024-02-28T14:56:49;16.90;99.90
64685;DHT22;51109;47.414;18.954;2024-02-28T14:59:15;16.90;99.90
64685;DHT22;51109;47.414;18.954;2024-02-28T15:01:40;16.90;99.90
64685;DHT22;51109;47.414;18.954;2024-02-28T15:04:06;16.80;99.90
64685;DHT22;51109;47.414;18.954;2024-02-28T15:06:35;16.80;99.90
64685;DHT22;51109;47.414;18.954;2024-02-28T15:09:01;16.70;99.90
64685;DHT22;51109;47.414;18.954;2024-02-28T15:11:31;16.70;99.90
64685;DHT22;51109;47.414;18.954;2024-02-28T15:13:57;16.60;99.90